sensor_id;sensor_type;location;lat;lon;timestamp;temperature;humidity
37324;DHT22;23205;49.986;18.950;2022-12-18T00:04:54;-3.40;99.90
37324;DHT22;23205;49.986;18.950;2022-12-18T00:09:55;-3.20;99.90
37324;DHT22;23205;49.986;18.950;2022-12-18T00:14:56;-3.20;99.90
37324;DHT22;23205;49.986;18.950;2022-12-18T00:19:57;-3.40;99.90
37324;DHT22;23205;49.986;18.950;2022-12-18T00:24:57;-3.40;99.90
37324;DHT22;23205;49.986;18.950;2022-12-18T00:29:58;-3.30;99.90
37324;DHT22;23205;49.986;18.950;2022-12-18T00:34:59;-3.20;99.90
37324;DHT22;23205;49.986;18.950;2022-12-18T00:40:00;-3.30;99.90
37324;DHT22;23205;49.986;18.950;2022-12-18T00:45:03;-2.50;99.90
37324;DHT22;23205;49.986;18.950;2022-12-18T00:50:06;-3.10;99.90
37324;DHT22;23205;49.986;18.950;2022-12-18T00:55:07;-3.20;99.90
37324;DHT22;23205;49.986;18.950;2022-12-18T01:00:13;-3.40;99.90
37324;DHT22;23205;49.986;18.950;2022-12-18T01:05:14;-3.20;99.90
37324;DHT22;23205;49.986;18.950;2022-12-18T01:10:15;-2.90;99.90
37324;DHT22;23205;49.986;18.950;2022-12-18T01:15:17;-3.10;99.90
37324;DHT22;23205;49.986;18.950;2022-12-18T01:20:18;-3.10;99.90
37324;DHT22;23205;49.986;18.950;2022-12-18T01:25:19;-3.10;99.90
37324;DHT22;23205;49.986;18.950;2022-12-18T01:30:19;-2.90;99.90
37324;DHT22;23205;49.986;18.950;2022-12-18T01:35:20;-2.90;99.90
37324;DHT22;23205;49.986;18.950;2022-12-18T01:40:21;-3.00;99.90
37324;DHT22;23205;49.986;18.950;2022-12-18T01:45:27;-3.00;99.90
37324;DHT22;23205;49.986;18.950;2022-12-18T01:50:38;-3.30;99.90
37324;DHT22;23205;49.986;18.950;2022-12-18T01:55:53;-3.20;99.90
37324;DHT22;23205;49.986;18.950;2022-12-18T02:00:55;-3.50;99.90
37324;DHT22;23205;49.986;18.950;2022-12-18T02:11:29;-3.40;99.90
37324;DHT22;23205;49.986;18.950;2022-12-18T02:16:42;-3.00;99.90
37324;DHT22;23205;49.986;18.950;2022-12-18T02:21:54;-3.20;99.90
37324;DHT22;23205;49.986;18.950;2022-12-18T02:27:00;-3.10;99.90
37324;DHT22;23205;49.986;18.950;2022-12-18T02:32:10;-3.30;99.90
37324;DHT22;23205;49.986;18.950;2022-12-18T02:37:16;-1.40;99.90
37324;DHT22;23205;49.986;18.950;2022-12-18T02:42:18;-3.20;99.90
37324;DHT22;23205;49.986;18.950;2022-12-18T02:47:24;-3.10;99.90
37324;DHT22;23205;49.986;18.950;2022-12-18T03:03:03;-3.40;99.90
37324;DHT22;23205;49.986;18.950;2022-12-18T03:08:10;-3.30;99.90
37324;DHT22;23205;49.986;18.950;2022-12-18T03:23:40;-3.40;99.90
37324;DHT22;23205;49.986;18.950;2022-12-18T03:28:59;-3.40;99.90
37324;DHT22;23205;49.986;18.950;2022-12-18T03:34:04;-3.60;99.90
37324;DHT22;23205;49.986;18.950;2022-12-18T03:39:14;-3.00;99.90
37324;DHT22;23205;49.986;18.950;2022-12-18T03:55:08;-3.30;99.90
37324;DHT22;23205;49.986;18.950;2022-12-18T04:00:13;-3.40;99.90
37324;DHT22;23205;49.986;18.950;2022-12-18T04:05:15;-3.50;99.90
37324;DHT22;23205;49.986;18.950;2022-12-18T04:10:18;-3.50;99.90
37324;DHT22;23205;49.986;18.950;2022-12-18T04:15:19;-3.30;99.90
37324;DHT22;23205;49.986;18.950;2022-12-18T04:20:21;-3.50;99.90
37324;DHT22;23205;49.986;18.950;2022-12-18T04:25:22;-3.40;99.90
37324;DHT22;23205;49.986;18.950;2022-12-18T04:30:38;-3.90;99.90
37324;DHT22;23205;49.986;18.950;2022-12-18T04:35:41;-3.50;99.90
37324;DHT22;23205;49.986;18.950;2022-12-18T04:40:42;-3.20;99.90
37324;DHT22;23205;49.986;18.950;2022-12-18T04:45:51;-2.10;99.90
37324;DHT22;23205;49.986;18.950;2022-12-18T04:50:52;-3.30;99.90
37324;DHT22;23205;49.986;18.950;2022-12-18T05:01:04;-3.00;99.90
37324;DHT22;23205;49.986;18.950;2022-12-18T05:06:06;-2.70;99.90
37324;DHT22;23205;49.986;18.950;2022-12-18T05:11:10;-3.30;99.90
37324;DHT22;23205;49.986;18.950;2022-12-18T05:16:12;-3.60;99.90
37324;DHT22;23205;49.986;18.950;2022-12-18T05:21:13;-3.70;99.90
37324;DHT22;23205;49.986;18.950;2022-12-18T05:26:17;-3.60;99.90
37324;DHT22;23205;49.986;18.950;2022-12-18T05:31:18;-3.50;99.90
37324;DHT22;23205;49.986;18.950;2022-12-18T05:36:18;-3.50;99.90
37324;DHT22;23205;49.986;18.950;2022-12-18T05:41:19;-3.60;99.90
37324;DHT22;23205;49.986;18.950;2022-12-18T05:46:20;-3.60;99.90
37324;DHT22;23205;49.986;18.950;2022-12-18T05:51:21;-3.40;99.90
37324;DHT22;23205;49.986;18.950;2022-12-18T05:56:22;-3.50;99.90
37324;DHT22;23205;49.986;18.950;2022-12-18T06:01:25;-3.20;99.90
37324;DHT22;23205;49.986;18.950;2022-12-18T06:06:27;-3.20;99.90
37324;DHT22;23205;49.986;18.950;2022-12-18T06:11:29;-2.50;99.90
37324;DHT22;23205;49.986;18.950;2022-12-18T06:16:30;-3.50;99.90
37324;DHT22;23205;49.986;18.950;2022-12-18T06:21:32;-3.40;99.90
37324;DHT22;23205;49.986;18.950;2022-12-18T06:26:33;-3.60;99.90
37324;DHT22;23205;49.986;18.950;2022-12-18T06:31:34;-3.50;99.90
37324;DHT22;23205;49.986;18.950;2022-12-18T06:36:34;-3.30;99.90
37324;DHT22;23205;49.986;18.950;2022-12-18T06:41:35;-3.40;99.90
37324;DHT22;23205;49.986;18.950;2022-12-18T06:46:36;-3.50;99.90
37324;DHT22;23205;49.986;18.950;2022-12-18T06:51:38;-3.50;99.90
37324;DHT22;23205;49.986;18.950;2022-12-18T06:56:39;-3.40;99.90
37324;DHT22;23205;49.986;18.950;2022-12-18T07:01:40;-3.50;99.90
37324;DHT22;23205;49.986;18.950;2022-12-18T07:06:41;-3.50;99.90
37324;DHT22;23205;49.986;18.950;2022-12-18T07:11:42;-3.20;99.90
37324;DHT22;23205;49.986;18.950;2022-12-18T07:16:43;-3.50;99.90
37324;DHT22;23205;49.986;18.950;2022-12-18T07:21:43;-3.50;99.90
37324;DHT22;23205;49.986;18.950;2022-12-18T07:26:47;-3.50;99.90
37324;DHT22;23205;49.986;18.950;2022-12-18T07:31:48;-3.50;99.90
37324;DHT22;23205;49.986;18.950;2022-12-18T07:36:49;-3.50;99.90
37324;DHT22;23205;49.986;18.950;2022-12-18T07:41:50;-3.30;99.90
37324;DHT22;23205;49.986;18.950;2022-12-18T07:47:09;-3.20;99.90
37324;DHT22;23205;49.986;18.950;2022-12-18T07:52:10;-3.00;99.90
37324;DHT22;23205;49.986;18.950;2022-12-18T07:57:12;-2.80;99.90
37324;DHT22;23205;49.986;18.950;2022-12-18T08:02:13;-2.80;99.90
37324;DHT22;23205;49.986;18.950;2022-12-18T08:07:14;-3.00;99.90
37324;DHT22;23205;49.986;18.950;2022-12-18T08:12:14;-2.90;99.90
37324;DHT22;23205;49.986;18.950;2022-12-18T08:17:15;-2.90;99.90
37324;DHT22;23205;49.986;18.950;2022-12-18T08:22:16;-3.00;99.90
37324;DHT22;23205;49.986;18.950;2022-12-18T08:27:17;-2.40;99.90
37324;DHT22;23205;49.986;18.950;2022-12-18T08:32:18;-2.70;99.90
37324;DHT22;23205;49.986;18.950;2022-12-18T08:37:19;-2.40;99.90
37324;DHT22;23205;49.986;18.950;2022-12-18T08:42:20;-2.40;99.90
37324;DHT22;23205;49.986;18.950;2022-12-18T08:47:39;-2.70;99.90
37324;DHT22;23205;49.986;18.950;2022-12-18T08:52:40;-2.00;99.90
37324;DHT22;23205;49.986;18.950;2022-12-18T08:57:40;-2.40;99.90
37324;DHT22;23205;49.986;18.950;2022-12-18T09:02:41;-1.90;99.90
37324;DHT22;23205;49.986;18.950;2022-12-18T09:07:42;-1.80;99.90
37324;DHT22;23205;49.986;18.950;2022-12-18T09:12:43;-1.80;99.90
37324;DHT22;23205;49.986;18.950;2022-12-18T09:17:43;-1.70;99.90
37324;DHT22;23205;49.986;18.950;2022-12-18T09:22:44;-1.70;99.90
37324;DHT22;23205;49.986;18.950;2022-12-18T09:27:47;-2.00;99.90
37324;DHT22;23205;49.986;18.950;2022-12-18T09:32:48;-1.30;99.90
37324;DHT22;23205;49.986;18.950;2022-12-18T09:37:49;-1.40;99.90
37324;DHT22;23205;49.986;18.950;2022-12-18T09:43:15;-1.50;99.90
37324;DHT22;23205;49.986;18.950;2022-12-18T09:48:26;-1.00;99.90
37324;DHT22;23205;49.986;18.950;2022-12-18T09:53:33;0.00;99.90
37324;DHT22;23205;49.986;18.950;2022-12-18T09:58:42;-0.70;99.90
37324;DHT22;23205;49.986;18.950;2022-12-18T10:03:44;-0.40;99.90
37324;DHT22;23205;49.986;18.950;2022-12-18T10:14:07;0.80;99.90
37324;DHT22;23205;49.986;18.950;2022-12-18T10:29:17;3.80;89.90
37324;DHT22;23205;49.986;18.950;2022-12-18T10:34:18;6.40;82.20
37324;DHT22;23205;49.986;18.950;2022-12-18T10:39:21;6.30;76.30
37324;DHT22;23205;49.986;18.950;2022-12-18T10:44:26;6.40;76.20
37324;DHT22;23205;49.986;18.950;2022-12-18T10:49:30;7.40;74.20
37324;DHT22;23205;49.986;18.950;2022-12-18T10:54:32;8.00;73.90
37324;DHT22;23205;49.986;18.950;2022-12-18T10:59:53;8.30;70.20
37324;DHT22;23205;49.986;18.950;2022-12-18T11:04:55;8.30;74.00
37324;DHT22;23205;49.986;18.950;2022-12-18T11:10:02;9.40;72.00
37324;DHT22;23205;49.986;18.950;2022-12-18T11:15:03;9.50;71.10
37324;DHT22;23205;49.986;18.950;2022-12-18T11:20:17;9.30;67.50
37324;DHT22;23205;49.986;18.950;2022-12-18T11:25:19;8.70;66.30
37324;DHT22;23205;49.986;18.950;2022-12-18T11:30:54;9.60;68.80
37324;DHT22;23205;49.986;18.950;2022-12-18T11:35:50;9.90;65.10
37324;DHT22;23205;49.986;18.950;2022-12-18T11:46:09;9.60;67.20
37324;DHT22;23205;49.986;18.950;2022-12-18T11:51:14;10.80;66.70
37324;DHT22;23205;49.986;18.950;2022-12-18T11:56:36;10.60;64.50
37324;DHT22;23205;49.986;18.950;2022-12-18T12:01:43;11.30;63.10
37324;DHT22;23205;49.986;18.950;2022-12-18T12:17:10;12.10;60.80
37324;DHT22;23205;49.986;18.950;2022-12-18T12:23:18;12.70;60.70
37324;DHT22;23205;49.986;18.950;2022-12-18T12:33:46;12.50;60.00
37324;DHT22;23205;49.986;18.950;2022-12-18T12:39:06;11.80;60.00
37324;DHT22;23205;49.986;18.950;2022-12-18T12:44:14;12.20;61.40
37324;DHT22;23205;49.986;18.950;2022-12-18T12:49:21;12.10;60.30
37324;DHT22;23205;49.986;18.950;2022-12-18T12:54:27;11.60;61.90
37324;DHT22;23205;49.986;18.950;2022-12-18T12:59:35;11.30;61.80
37324;DHT22;23205;49.986;18.950;2022-12-18T13:15:42;10.30;62.40
37324;DHT22;23205;49.986;18.950;2022-12-18T13:31:07;9.90;63.50
37324;DHT22;23205;49.986;18.950;2022-12-18T13:36:25;8.80;66.30
37324;DHT22;23205;49.986;18.950;2022-12-18T13:41:27;8.30;67.80
37324;DHT22;23205;49.986;18.950;2022-12-18T13:46:29;8.30;68.00
37324;DHT22;23205;49.986;18.950;2022-12-18T13:51:33;7.80;68.70
37324;DHT22;23205;49.986;18.950;2022-12-18T13:56:34;6.80;70.90
37324;DHT22;23205;49.986;18.950;2022-12-18T14:01:55;5.20;74.10
37324;DHT22;23205;49.986;18.950;2022-12-18T14:07:18;3.50;79.40
37324;DHT22;23205;49.986;18.950;2022-12-18T14:12:22;1.90;84.40
37324;DHT22;23205;49.986;18.950;2022-12-18T14:17:43;0.90;90.40
37324;DHT22;23205;49.986;18.950;2022-12-18T14:22:46;0.30;97.90
37324;DHT22;23205;49.986;18.950;2022-12-18T14:27:51;-0.40;99.90
37324;DHT22;23205;49.986;18.950;2022-12-18T14:33:05;-0.80;99.90
37324;DHT22;23205;49.986;18.950;2022-12-18T14:43:22;-1.00;99.90
37324;DHT22;23205;49.986;18.950;2022-12-18T14:48:40;-1.50;99.90
37324;DHT22;23205;49.986;18.950;2022-12-18T14:53:44;-1.90;99.90
37324;DHT22;23205;49.986;18.950;2022-12-18T14:59:35;-2.10;99.90
37324;DHT22;23205;49.986;18.950;2022-12-18T15:04:32;-2.80;99.90
37324;DHT22;23205;49.986;18.950;2022-12-18T15:09:35;-3.20;99.90
37324;DHT22;23205;49.986;18.950;2022-12-18T15:14:40;-3.40;99.90
37324;DHT22;23205;49.986;18.950;2022-12-18T15:19:42;-3.50;99.90
37324;DHT22;23205;49.986;18.950;2022-12-18T15:24:44;-3.40;99.90
37324;DHT22;23205;49.986;18.950;2022-12-18T15:29:59;-4.30;99.90
37324;DHT22;23205;49.986;18.950;2022-12-18T15:35:14;-3.90;99.90
37324;DHT22;23205;49.986;18.950;2022-12-18T15:40:18;-3.80;99.90
37324;DHT22;23205;49.986;18.950;2022-12-18T15:45:19;-4.20;99.90
37324;DHT22;23205;49.986;18.950;2022-12-18T15:50:20;-4.30;99.90
37324;DHT22;23205;49.986;18.950;2022-12-18T15:55:22;-4.20;99.90
37324;DHT22;23205;49.986;18.950;2022-12-18T16:00:43;-4.70;99.90
37324;DHT22;23205;49.986;18.950;2022-12-18T16:05:43;-4.80;99.90
37324;DHT22;23205;49.986;18.950;2022-12-18T16:10:44;-4.80;99.90
37324;DHT22;23205;49.986;18.950;2022-12-18T16:15:45;-5.00;99.90
37324;DHT22;23205;49.986;18.950;2022-12-18T16:20:46;-5.30;99.90
37324;DHT22;23205;49.986;18.950;2022-12-18T16:25:47;-5.40;99.90
37324;DHT22;23205;49.986;18.950;2022-12-18T16:30:48;-5.50;99.90
37324;DHT22;23205;49.986;18.950;2022-12-18T16:35:52;-5.60;99.90
37324;DHT22;23205;49.986;18.950;2022-12-18T16:40:53;-5.70;99.90
37324;DHT22;23205;49.986;18.950;2022-12-18T16:46:13;-5.70;99.90
37324;DHT22;23205;49.986;18.950;2022-12-18T16:51:13;-5.50;99.90
37324;DHT22;23205;49.986;18.950;2022-12-18T16:56:14;-5.40;99.90
37324;DHT22;23205;49.986;18.950;2022-12-18T17:01:15;-5.50;99.90
37324;DHT22;23205;49.986;18.950;2022-12-18T17:06:16;-5.60;99.90
37324;DHT22;23205;49.986;18.950;2022-12-18T17:11:17;-5.60;99.90
37324;DHT22;23205;49.986;18.950;2022-12-18T17:16:18;-6.00;99.90
37324;DHT22;23205;49.986;18.950;2022-12-18T17:21:19;-6.10;99.90
37324;DHT22;23205;49.986;18.950;2022-12-18T17:26:19;-6.60;99.90
37324;DHT22;23205;49.986;18.950;2022-12-18T17:31:24;-6.50;99.90
37324;DHT22;23205;49.986;18.950;2022-12-18T17:36:25;-6.70;99.90
37324;DHT22;23205;49.986;18.950;2022-12-18T17:41:30;-6.70;99.90
37324;DHT22;23205;49.986;18.950;2022-12-18T17:46:34;-6.80;99.90
37324;DHT22;23205;49.986;18.950;2022-12-18T17:51:35;-6.90;99.90
37324;DHT22;23205;49.986;18.950;2022-12-18T17:56:37;-7.10;99.90
37324;DHT22;23205;49.986;18.950;2022-12-18T18:01:38;-5.10;99.90
37324;DHT22;23205;49.986;18.950;2022-12-18T18:06:39;-7.20;99.90
37324;DHT22;23205;49.986;18.950;2022-12-18T18:11:40;-7.40;99.90
37324;DHT22;23205;49.986;18.950;2022-12-18T18:16:59;-7.30;99.90
37324;DHT22;23205;49.986;18.950;2022-12-18T18:22:01;-7.50;99.90
37324;DHT22;23205;49.986;18.950;2022-12-18T18:27:02;-7.50;99.90
37324;DHT22;23205;49.986;18.950;2022-12-18T18:32:03;-7.50;99.90
37324;DHT22;23205;49.986;18.950;2022-12-18T18:37:04;-7.50;99.90
37324;DHT22;23205;49.986;18.950;2022-12-18T18:42:05;-7.60;99.90
37324;DHT22;23205;49.986;18.950;2022-12-18T18:47:06;-7.70;99.90
37324;DHT22;23205;49.986;18.950;2022-12-18T18:52:07;-7.80;99.90
37324;DHT22;23205;49.986;18.950;2022-12-18T18:57:08;-7.70;99.90
37324;DHT22;23205;49.986;18.950;2022-12-18T19:02:11;-7.80;99.90
37324;DHT22;23205;49.986;18.950;2022-12-18T19:07:14;-7.90;99.90
37324;DHT22;23205;49.986;18.950;2022-12-18T19:12:15;-7.90;99.90
37324;DHT22;23205;49.986;18.950;2022-12-18T19:17:34;-7.90;99.90
37324;DHT22;23205;49.986;18.950;2022-12-18T19:22:36;-7.90;99.90
37324;DHT22;23205;49.986;18.950;2022-12-18T19:27:37;-7.90;99.90
37324;DHT22;23205;49.986;18.950;2022-12-18T19:32:39;-8.10;99.90
37324;DHT22;23205;49.986;18.950;2022-12-18T19:37:40;-8.10;99.90
37324;DHT22;23205;49.986;18.950;2022-12-18T19:42:41;-8.20;99.90
37324;DHT22;23205;49.986;18.950;2022-12-18T19:47:42;-8.10;99.90
37324;DHT22;23205;49.986;18.950;2022-12-18T19:52:42;-8.30;99.90
37324;DHT22;23205;49.986;18.950;2022-12-18T19:57:44;-8.50;99.90
37324;DHT22;23205;49.986;18.950;2022-12-18T20:02:48;-8.60;99.90
37324;DHT22;23205;49.986;18.950;2022-12-18T20:07:53;-8.60;99.90
37324;DHT22;23205;49.986;18.950;2022-12-18T20:12:53;-8.40;99.90
37324;DHT22;23205;49.986;18.950;2022-12-18T20:17:55;-8.30;99.90
37324;DHT22;23205;49.986;18.950;2022-12-18T20:22:56;-8.20;99.90
37324;DHT22;23205;49.986;18.950;2022-12-18T20:27:57;-8.40;99.90
37324;DHT22;23205;49.986;18.950;2022-12-18T20:32:58;-8.30;99.90
37324;DHT22;23205;49.986;18.950;2022-12-18T20:37:58;-8.40;99.90
37324;DHT22;23205;49.986;18.950;2022-12-18T20:42:59;-8.60;99.90
37324;DHT22;23205;49.986;18.950;2022-12-18T20:48:00;-8.70;99.90
37324;DHT22;23205;49.986;18.950;2022-12-18T20:53:02;-8.60;99.90
37324;DHT22;23205;49.986;18.950;2022-12-18T20:58:02;-8.60;99.90
37324;DHT22;23205;49.986;18.950;2022-12-18T21:03:03;-8.50;99.90
37324;DHT22;23205;49.986;18.950;2022-12-18T21:08:04;-8.70;99.90
37324;DHT22;23205;49.986;18.950;2022-12-18T21:13:05;-8.70;99.90
37324;DHT22;23205;49.986;18.950;2022-12-18T21:18:06;-8.60;99.90
37324;DHT22;23205;49.986;18.950;2022-12-18T21:23:06;-8.80;99.90
37324;DHT22;23205;49.986;18.950;2022-12-18T21:28:07;-8.70;99.90
37324;DHT22;23205;49.986;18.950;2022-12-18T21:33:08;-8.80;99.90
37324;DHT22;23205;49.986;18.950;2022-12-18T21:38:09;-8.90;99.90
37324;DHT22;23205;49.986;18.950;2022-12-18T21:43:09;-8.90;99.90
37324;DHT22;23205;49.986;18.950;2022-12-18T21:48:29;-9.00;99.90
37324;DHT22;23205;49.986;18.950;2022-12-18T21:53:29;-9.10;99.90
37324;DHT22;23205;49.986;18.950;2022-12-18T21:58:30;-9.20;99.90
37324;DHT22;23205;49.986;18.950;2022-12-18T22:03:31;-9.30;99.90
37324;DHT22;23205;49.986;18.950;2022-12-18T22:08:32;-9.20;99.90
37324;DHT22;23205;49.986;18.950;2022-12-18T22:13:34;-9.20;99.90
37324;DHT22;23205;49.986;18.950;2022-12-18T22:18:35;-9.20;99.90
37324;DHT22;23205;49.986;18.950;2022-12-18T22:23:36;-9.10;99.90
37324;DHT22;23205;49.986;18.950;2022-12-18T22:28:37;-9.10;99.90
37324;DHT22;23205;49.986;18.950;2022-12-18T22:33:56;-9.10;99.90
37324;DHT22;23205;49.986;18.950;2022-12-18T22:38:57;-9.20;99.90
37324;DHT22;23205;49.986;18.950;2022-12-18T22:43:57;-9.10;99.90
37324;DHT22;23205;49.986;18.950;2022-12-18T22:48:58;-9.00;99.90
37324;DHT22;23205;49.986;18.950;2022-12-18T22:53:59;-9.00;99.90
37324;DHT22;23205;49.986;18.950;2022-12-18T22:59:00;-9.00;99.90
37324;DHT22;23205;49.986;18.950;2022-12-18T23:04:01;-9.10;99.90
37324;DHT22;23205;49.986;18.950;2022-12-18T23:09:01;-9.10;99.90
37324;DHT22;23205;49.986;18.950;2022-12-18T23:14:02;-9.00;99.90
37324;DHT22;23205;49.986;18.950;2022-12-18T23:19:04;-9.00;99.90
37324;DHT22;23205;49.986;18.950;2022-12-18T23:24:05;-8.90;99.90
37324;DHT22;23205;49.986;18.950;2022-12-18T23:29:06;-8.90;99.90
37324;DHT22;23205;49.986;18.950;2022-12-18T23:34:09;-8.90;99.90
37324;DHT22;23205;49.986;18.950;2022-12-18T23:39:12;-9.00;99.90
37324;DHT22;23205;49.986;18.950;2022-12-18T23:44:13;-9.00;99.90
37324;DHT22;23205;49.986;18.950;2022-12-18T23:49:14;-9.00;99.90
37324;DHT22;23205;49.986;18.950;2022-12-18T23:54:15;-9.20;99.90
37324;DHT22;23205;49.986;18.950;2022-12-18T23:59:16;-9.10;99.90
